Time;durP1;ratioP1;P1;durP2;ratioP2;P2;SDS_P1;SDS_P2;PMS_P1;PMS_P2;Temp;Humidity;BMP_temperature;BMP_pressure;BME280_temperature;BME280_humidity;BME280_pressure;Samples;Min_cycle;Max_cycle;Signal;HPM_P1;HPM_P2
2021/01/03 00:01:40;;;;;;;45.92;34.72;;;;;;;;;;5110234;28;20183;-51
2021/01/03 00:04:06;;;;;;;48.13;35.00;;;;;;;;;;5104923;28;20667;-50
2021/01/03 00:06:31;;;;;;;43.33;33.70;;;;;;;;;;5109485;28;20186;-51
2021/01/03 00:08:56;;;;;;;44.53;34.80;;;;;;;;;;5110757;28;20170;-51
2021/01/03 00:11:21;;;;;;;46.53;34.78;;;;;;;;;;5110653;27;20184;-50
2021/01/03 00:13:46;;;;;;;49.20;35.35;;;;;;;;;;5104318;28;20180;-51
2021/01/03 00:16:11;;;;;;;47.97;34.30;;;;;;;;;;5110726;28;20209;-52
2021/01/03 00:18:36;;;;;;;46.38;33.60;;;;;;;;;;5112311;28;20240;-51
2021/01/03 00:21:02;;;;;;;43.50;32.85;;;;;;;;;;5109958;28;20262;-52
2021/01/03 00:23:27;;;;;;;43.77;33.70;;;;;;;;;;5108790;28;20274;-52
2021/01/03 00:25:52;;;;;;;49.00;35.97;;;;;;;;;;5108864;28;20166;-52
2021/01/03 00:28:17;;;;;;;42.60;32.57;;;;;;;;;;5116740;28;20185;-52
2021/01/03 00:30:42;;;;;;;44.42;33.50;;;;;;;;;;5122505;28;20183;-51
2021/01/03 00:33:08;;;;;;;47.77;35.30;;;;;;;;;;5108214;28;20186;-51
2021/01/03 00:35:34;;;;;;;45.50;32.97;;;;;;;;;;5110261;28;20220;-51
2021/01/03 00:38:00;;;;;;;47.67;34.90;;;;;;;;;;5110815;28;20571;-52
2021/01/03 00:40:25;;;;;;;44.63;33.10;;;;;;;;;;5108098;28;20648;-51
2021/01/03 00:42:50;;;;;;;51.77;34.67;;;;;;;;;;5108004;28;20676;-52
2021/01/03 00:45:16;;;;;;;49.73;35.50;;;;;;;;;;5117939;28;20692;-51
2021/01/03 00:47:41;;;;;;;44.37;32.20;;;;;;;;;;5114013;28;20208;-52
2021/01/03 00:50:08;;;;;;;47.35;35.55;;;;;;;;;;5114186;28;20183;-51
2021/01/03 00:52:33;;;;;;;46.97;35.73;;;;;;;;;;5105789;28;20168;-50
2021/01/03 00:54:58;;;;;;;49.50;35.38;;;;;;;;;;5125646;28;20616;-52
2021/01/03 00:57:23;;;;;;;46.70;33.70;;;;;;;;;;5110581;28;20184;-51
2021/01/03 00:59:48;;;;;;;49.92;35.60;;;;;;;;;;5112650;28;20170;-52
2021/01/03 01:02:13;;;;;;;51.63;35.63;;;;;;;;;;5108005;28;20218;-51
2021/01/03 01:04:39;;;;;;;52.80;34.72;;;;;;;;;;5109613;28;20257;-51
2021/01/03 01:07:04;;;;;;;52.72;34.78;;;;;;;;;;5107028;28;20181;-52
2021/01/03 01:09:29;;;;;;;55.72;35.83;;;;;;;;;;5108259;28;20532;-51
2021/01/03 01:11:54;;;;;;;42.65;32.60;;;;;;;;;;5112468;28;20203;-51
2021/01/03 01:14:20;;;;;;;46.70;33.43;;;;;;;;;;5107525;28;20183;-51
2021/01/03 01:16:45;;;;;;;47.40;34.57;;;;;;;;;;5118379;28;20191;-51
2021/01/03 01:19:10;;;;;;;45.00;33.40;;;;;;;;;;5112150;28;20225;-51
2021/01/03 01:21:35;;;;;;;50.60;34.97;;;;;;;;;;5116592;27;20174;-52
2021/01/03 01:24:00;;;;;;;52.90;34.47;;;;;;;;;;5112822;27;20217;-51
2021/01/03 01:26:25;;;;;;;53.10;36.22;;;;;;;;;;5116321;27;20550;-52
2021/01/03 01:28:50;;;;;;;52.38;35.33;;;;;;;;;;5113936;27;20172;-51
2021/01/03 01:31:16;;;;;;;51.90;33.87;;;;;;;;;;5113688;28;20172;-51
2021/01/03 01:33:41;;;;;;;49.10;33.55;;;;;;;;;;5107615;27;20175;-52
2021/01/03 01:36:06;;;;;;;47.17;33.17;;;;;;;;;;5115266;27;20188;-52
2021/01/03 01:38:31;;;;;;;52.17;36.17;;;;;;;;;;5113651;28;20233;-52
2021/01/03 01:40:57;;;;;;;53.60;35.23;;;;;;;;;;5114056;27;20217;-53
2021/01/03 01:43:23;;;;;;;56.63;36.70;;;;;;;;;;5117264;27;20670;-52
2021/01/03 01:45:48;;;;;;;54.20;36.40;;;;;;;;;;5114067;27;20180;-52
2021/01/03 01:48:21;;;;;;;54.40;36.40;;;;;;;;;;5112172;27;20253;-53
2021/01/03 01:50:52;;;;;;;53.00;35.50;;;;;;;;;;5104880;28;20198;-51
2021/01/03 01:53:25;;;;;;;47.47;34.43;;;;;;;;;;5110082;27;20722;-50
2021/01/03 01:55:53;;;;;;;49.60;34.80;;;;;;;;;;5112692;28;20615;-52
2021/01/03 01:58:35;;;;;;;47.90;32.47;;;;;;;;;;5113786;27;20635;-51
2021/01/03 02:01:01;;;;;;;57.77;39.50;;;;;;;;;;5126919;27;20602;-50
2021/01/03 02:03:35;;;;;;;53.90;35.57;;;;;;;;;;5120473;27;20655;-51
2021/01/03 02:06:09;;;;;;;53.07;37.20;;;;;;;;;;5111964;28;20993;-51
2021/01/03 02:08:37;;;;;;;54.40;35.30;;;;;;;;;;5115728;27;20656;-51
2021/01/03 02:11:04;;;;;;;51.93;36.37;;;;;;;;;;5124031;27;21073;-51
2021/01/03 02:13:37;;;;;;;51.87;35.87;;;;;;;;;;5109310;27;20884;-51
2021/01/03 02:16:05;;;;;;;53.70;36.73;;;;;;;;;;5108568;28;20651;-50
2021/01/03 02:18:30;;;;;;;51.87;34.73;;;;;;;;;;5116159;27;20643;-51
2021/01/03 02:21:02;;;;;;;47.13;35.47;;;;;;;;;;5111124;27;20671;-51
2021/01/03 02:23:39;;;;;;;53.67;36.00;;;;;;;;;;5112891;27;20664;-51
2021/01/03 02:26:06;;;;;;;54.63;34.63;;;;;;;;;;5110415;28;20597;-50
2021/01/03 02:28:34;;;;;;;52.70;35.07;;;;;;;;;;5116833;27;20698;-51
2021/01/03 02:31:00;;;;;;;49.20;34.77;;;;;;;;;;5113533;27;20609;-50
2021/01/03 02:33:28;;;;;;;52.00;36.50;;;;;;;;;;5111662;27;20623;-51
2021/01/03 02:35:57;;;;;;;50.13;33.70;;;;;;;;;;5117506;27;20337;-51
2021/01/03 02:38:25;;;;;;;54.23;37.40;;;;;;;;;;5111208;27;20664;-51
2021/01/03 02:40:50;;;;;;;50.83;35.63;;;;;;;;;;5111479;28;20616;-51
2021/01/03 02:43:15;;;;;;;55.43;37.07;;;;;;;;;;5108358;27;20634;-51
2021/01/03 02:45:40;;;;;;;54.97;37.00;;;;;;;;;;5113539;27;20265;-51
2021/01/03 02:48:07;;;;;;;49.55;34.88;;;;;;;;;;5110997;27;20167;-51
2021/01/03 02:50:32;;;;;;;56.13;37.83;;;;;;;;;;5101595;28;20704;-51
2021/01/03 02:52:58;;;;;;;54.10;34.33;;;;;;;;;;5108773;27;20612;-52
2021/01/03 02:55:23;;;;;;;54.97;36.22;;;;;;;;;;5109227;27;20560;-52
2021/01/03 02:57:48;;;;;;;48.37;33.43;;;;;;;;;;5111108;28;20190;-52
2021/01/03 03:00:33;;;;;;;55.77;36.30;;;;;;;;;;5111278;27;20171;-50
2021/01/03 03:02:59;;;;;;;55.43;35.13;;;;;;;;;;5101761;27;20218;-51
2021/01/03 03:05:24;;;;;;;56.13;35.77;;;;;;;;;;5111469;28;20584;-51
2021/01/03 03:07:50;;;;;;;56.30;36.27;;;;;;;;;;5110308;27;20186;-52
2021/01/03 03:10:16;;;;;;;56.93;35.50;;;;;;;;;;5111491;28;20193;-52
2021/01/03 03:12:41;;;;;;;56.03;36.73;;;;;;;;;;5106857;28;20616;-51
2021/01/03 03:15:08;;;;;;;50.03;35.03;;;;;;;;;;5124185;27;20227;-53
2021/01/03 03:17:34;;;;;;;62.10;38.43;;;;;;;;;;5112171;27;20655;-52
2021/01/03 03:19:59;;;;;;;51.33;36.07;;;;;;;;;;5121775;27;20645;-51
2021/01/03 03:22:24;;;;;;;54.85;35.70;;;;;;;;;;5111001;28;20561;-51
2021/01/03 03:24:49;;;;;;;51.60;35.78;;;;;;;;;;5120463;27;20691;-52
2021/01/03 03:27:14;;;;;;;51.40;34.63;;;;;;;;;;5114914;27;20162;-53
2021/01/03 03:29:40;;;;;;;55.03;35.20;;;;;;;;;;5113474;27;20187;-51
2021/01/03 03:32:05;;;;;;;50.43;34.57;;;;;;;;;;5110715;28;20581;-51
2021/01/03 03:34:30;;;;;;;52.70;35.40;;;;;;;;;;5110839;27;20181;-52
2021/01/03 03:36:56;;;;;;;55.63;35.80;;;;;;;;;;5117475;27;20171;-52
2021/01/03 03:39:21;;;;;;;52.20;34.80;;;;;;;;;;5109751;27;20174;-51
2021/01/03 03:41:46;;;;;;;53.93;35.73;;;;;;;;;;5110301;28;20684;-51
2021/01/03 03:44:11;;;;;;;55.83;37.10;;;;;;;;;;5107980;27;20201;-51
2021/01/03 03:46:37;;;;;;;50.67;35.07;;;;;;;;;;5112724;27;20179;-51
2021/01/03 03:49:02;;;;;;;53.67;34.43;;;;;;;;;;5110774;28;20198;-52
2021/01/03 03:51:27;;;;;;;53.40;35.40;;;;;;;;;;5109944;28;20178;-53
2021/01/03 03:53:52;;;;;;;55.63;36.97;;;;;;;;;;5108535;28;20306;-51
2021/01/03 03:56:17;;;;;;;49.90;33.07;;;;;;;;;;5109236;28;20173;-52
2021/01/03 03:58:43;;;;;;;54.57;35.80;;;;;;;;;;5109660;28;20322;-52
2021/01/03 04:01:08;;;;;;;49.17;35.13;;;;;;;;;;5110586;28;20717;-51
2021/01/03 04:03:33;;;;;;;52.60;37.07;;;;;;;;;;5108069;28;20705;-52
2021/01/03 04:05:59;;;;;;;54.33;36.17;;;;;;;;;;5109729;28;20183;-51
2021/01/03 04:08:24;;;;;;;55.27;34.83;;;;;;;;;;5108594;28;20194;-52
2021/01/03 04:10:49;;;;;;;45.20;32.87;;;;;;;;;;5110128;28;20178;-51
2021/01/03 04:13:15;;;;;;;54.80;36.10;;;;;;;;;;5108746;28;20205;-51
2021/01/03 04:15:40;;;;;;;50.20;34.83;;;;;;;;;;5112845;28;20187;-52
2021/01/03 04:18:05;;;;;;;49.58;35.60;;;;;;;;;;5113408;28;20181;-51
2021/01/03 04:20:31;;;;;;;50.43;34.60;;;;;;;;;;5123039;28;20183;-51
2021/01/03 04:22:56;;;;;;;53.33;34.77;;;;;;;;;;5108133;28;20195;-52
2021/01/03 04:25:21;;;;;;;52.58;34.78;;;;;;;;;;5114519;28;20621;-51
2021/01/03 04:27:46;;;;;;;53.80;37.20;;;;;;;;;;5108389;28;20580;-51
2021/01/03 04:30:12;;;;;;;49.20;35.57;;;;;;;;;;5109998;28;20226;-51
2021/01/03 04:32:38;;;;;;;44.60;33.57;;;;;;;;;;5114730;28;20181;-52
2021/01/03 04:35:05;;;;;;;55.70;35.97;;;;;;;;;;5106573;28;20601;-50
2021/01/03 04:37:30;;;;;;;48.67;33.37;;;;;;;;;;5106321;28;20191;-51
2021/01/03 04:39:55;;;;;;;51.42;36.63;;;;;;;;;;5125161;28;20606;-52
2021/01/03 04:42:22;;;;;;;54.20;37.35;;;;;;;;;;5108020;28;20320;-51
2021/01/03 04:44:49;;;;;;;50.40;36.47;;;;;;;;;;5116136;28;20665;-51
2021/01/03 04:47:37;;;;;;;48.53;35.37;;;;;;;;;;5116617;28;21162;-51
2021/01/03 04:50:08;;;;;;;51.47;35.67;;;;;;;;;;5109093;28;20656;-52
2021/01/03 04:52:45;;;;;;;48.67;33.67;;;;;;;;;;5109815;28;20601;-51
2021/01/03 04:55:21;;;;;;;53.97;37.87;;;;;;;;;;5107063;28;21247;-51
2021/01/03 04:57:55;;;;;;;46.23;34.17;;;;;;;;;;5107476;28;20693;-51
2021/01/03 05:00:21;;;;;;;53.93;35.47;;;;;;;;;;5122546;27;20597;-50
2021/01/03 05:02:59;;;;;;;52.70;37.30;;;;;;;;;;5112338;28;20604;-50
2021/01/03 05:05:36;;;;;;;47.50;35.00;;;;;;;;;;5110938;28;20620;-50
2021/01/03 05:08:04;;;;;;;52.27;35.87;;;;;;;;;;5114005;27;20611;-52
2021/01/03 05:10:29;;;;;;;50.93;35.43;;;;;;;;;;5119188;27;21180;-51
2021/01/03 05:13:13;;;;;;;48.80;36.47;;;;;;;;;;5113299;28;20616;-51
2021/01/03 05:15:38;;;;;;;48.70;34.80;;;;;;;;;;5113967;27;20908;-52
2021/01/03 05:18:05;;;;;;;49.47;36.15;;;;;;;;;;5112036;27;20629;-52
2021/01/03 05:20:30;;;;;;;50.03;35.63;;;;;;;;;;5113118;28;20588;-52
2021/01/03 05:23:11;;;;;;;52.30;36.40;;;;;;;;;;5114799;27;20647;-51
2021/01/03 05:25:41;;;;;;;47.57;35.53;;;;;;;;;;5111455;28;20739;-51
2021/01/03 05:28:09;;;;;;;54.87;36.03;;;;;;;;;;5112936;27;20611;-51
2021/01/03 05:30:35;;;;;;;53.47;37.60;;;;;;;;;;5111556;28;20705;-51
2021/01/03 05:33:04;;;;;;;57.73;38.60;;;;;;;;;;5100702;28;21034;-51
2021/01/03 05:35:34;;;;;;;51.10;35.93;;;;;;;;;;5111650;27;20187;-52
2021/01/03 05:38:00;;;;;;;46.87;34.77;;;;;;;;;;5107771;28;21031;-51
2021/01/03 05:40:39;;;;;;;52.53;38.70;;;;;;;;;;5113214;27;20704;-51
2021/01/03 05:43:21;;;;;;;51.67;37.17;;;;;;;;;;5112382;27;20254;-51
2021/01/03 05:46:05;;;;;;;50.67;36.50;;;;;;;;;;5110002;27;20612;-51
2021/01/03 05:48:35;;;;;;;48.97;35.80;;;;;;;;;;5111708;27;21173;-52
2021/01/03 05:51:00;;;;;;;49.73;37.87;;;;;;;;;;5113900;27;20662;-51
2021/01/03 05:53:26;;;;;;;47.37;36.47;;;;;;;;;;5112374;28;20596;-52
2021/01/03 05:55:53;;;;;;;54.50;35.90;;;;;;;;;;5108934;27;20737;-51
2021/01/03 05:58:27;;;;;;;47.33;36.73;;;;;;;;;;5115209;27;20612;-51
2021/01/03 06:00:53;;;;;;;54.63;39.40;;;;;;;;;;5110667;27;20605;-52
2021/01/03 06:03:27;;;;;;;55.53;38.17;;;;;;;;;;5112339;28;21202;-50
2021/01/03 06:05:53;;;;;;;47.53;35.60;;;;;;;;;;5129465;27;20215;-50
2021/01/03 06:08:23;;;;;;;53.83;37.20;;;;;;;;;;5110521;27;20970;-51
2021/01/03 06:10:49;;;;;;;44.30;34.80;;;;;;;;;;5112569;27;20673;-51
2021/01/03 06:13:15;;;;;;;52.30;37.00;;;;;;;;;;5112035;28;21005;-52
2021/01/03 06:15:46;;;;;;;53.27;35.93;;;;;;;;;;5118877;27;20621;-51
2021/01/03 06:18:31;;;;;;;50.30;36.23;;;;;;;;;;5111727;28;20700;-51
2021/01/03 06:20:57;;;;;;;44.57;35.10;;;;;;;;;;5064372;27;20649;-50
2021/01/03 06:23:30;;;;;;;51.13;34.50;;;;;;;;;;5123436;27;20695;-51
2021/01/03 06:25:58;;;;;;;44.67;33.97;;;;;;;;;;5106761;27;21039;-50
2021/01/03 06:28:23;;;;;;;42.73;32.30;;;;;;;;;;5108115;28;20619;-51
2021/01/03 06:30:57;;;;;;;42.08;32.28;;;;;;;;;;5109534;27;20692;-51
2021/01/03 06:33:41;;;;;;;43.93;32.83;;;;;;;;;;5111945;27;20179;-50
2021/01/03 06:36:18;;;;;;;41.30;32.77;;;;;;;;;;5111755;27;20617;-50
2021/01/03 06:38:52;;;;;;;45.27;34.30;;;;;;;;;;5120330;27;20635;-51
2021/01/03 06:41:28;;;;;;;43.57;31.57;;;;;;;;;;5115696;27;20652;-50
2021/01/03 06:44:07;;;;;;;47.77;33.27;;;;;;;;;;5107364;28;20688;-51
2021/01/03 06:46:45;;;;;;;45.57;32.60;;;;;;;;;;5115745;27;20693;-50
2021/01/03 06:49:10;;;;;;;41.90;32.20;;;;;;;;;;5122512;27;20599;-51
2021/01/03 06:51:45;;;;;;;45.95;33.17;;;;;;;;;;5112457;27;20653;-50
2021/01/03 06:54:33;;;;;;;42.50;33.00;;;;;;;;;;5111609;27;20182;-50
2021/01/03 06:57:17;;;;;;;46.87;34.27;;;;;;;;;;5105351;28;20639;-50
2021/01/03 06:59:42;;;;;;;44.90;32.50;;;;;;;;;;5111127;28;20605;-49
2021/01/03 07:02:07;;;;;;;43.73;32.77;;;;;;;;;;5110584;27;20606;-49
2021/01/03 07:04:37;;;;;;;44.13;32.30;;;;;;;;;;5112014;27;20625;-50
2021/01/03 07:07:08;;;;;;;39.33;32.93;;;;;;;;;;5112413;27;20628;-51
2021/01/03 07:09:33;;;;;;;43.50;33.67;;;;;;;;;;5111949;28;20702;-50
2021/01/03 07:11:59;;;;;;;46.07;33.93;;;;;;;;;;5109242;28;20727;-49
2021/01/03 07:14:24;;;;;;;45.03;33.03;;;;;;;;;;5116816;27;20176;-51
2021/01/03 07:16:49;;;;;;;45.15;33.63;;;;;;;;;;5113304;27;20189;-51
2021/01/03 07:19:17;;;;;;;41.87;32.33;;;;;;;;;;5110539;27;20230;-49
2021/01/03 07:21:44;;;;;;;37.90;29.63;;;;;;;;;;5111541;27;20177;-50
2021/01/03 07:24:28;;;;;;;42.20;32.33;;;;;;;;;;5107426;28;20695;-50
2021/01/03 07:27:12;;;;;;;43.63;31.17;;;;;;;;;;5108648;28;21478;-50
2021/01/03 07:29:48;;;;;;;41.30;31.87;;;;;;;;;;5106451;28;20605;-50
2021/01/03 07:32:14;;;;;;;40.70;32.30;;;;;;;;;;5109593;28;20607;-50
2021/01/03 07:34:39;;;;;;;43.77;31.47;;;;;;;;;;5108660;27;20609;-49
2021/01/03 07:37:11;;;;;;;41.97;30.80;;;;;;;;;;5112992;27;20704;-49
2021/01/03 07:39:54;;;;;;;45.00;32.10;;;;;;;;;;5108721;28;20664;-49
2021/01/03 07:42:29;;;;;;;42.37;32.47;;;;;;;;;;5108289;28;20615;-50
2021/01/03 07:44:55;;;;;;;42.50;32.17;;;;;;;;;;5106352;28;20650;-50
2021/01/03 07:47:35;;;;;;;36.63;31.00;;;;;;;;;;5106979;28;20616;-50
2021/01/03 07:50:18;;;;;;;42.93;31.60;;;;;;;;;;5109482;28;20177;-50
2021/01/03 07:52:57;;;;;;;39.57;30.00;;;;;;;;;;5110337;28;20595;-50
2021/01/03 07:55:22;;;;;;;41.00;32.27;;;;;;;;;;5106110;28;20613;-50
2021/01/03 07:57:58;;;;;;;43.97;31.30;;;;;;;;;;5108356;28;20589;-50
2021/01/03 08:00:24;;;;;;;38.50;31.07;;;;;;;;;;5106271;28;20179;-49
2021/01/03 08:02:50;;;;;;;43.67;31.93;;;;;;;;;;5108568;28;20577;-50
2021/01/03 08:05:20;;;;;;;41.13;30.93;;;;;;;;;;5108228;28;20267;-50
2021/01/03 08:07:45;;;;;;;40.20;28.97;;;;;;;;;;5109978;28;20595;-50
2021/01/03 08:10:11;;;;;;;37.40;29.92;;;;;;;;;;5110209;28;20602;-50
2021/01/03 08:12:39;;;;;;;40.10;30.10;;;;;;;;;;5109947;28;20195;-49
2021/01/03 08:15:09;;;;;;;38.40;29.50;;;;;;;;;;5108120;28;20597;-49
2021/01/03 08:17:37;;;;;;;37.77;27.27;;;;;;;;;;5109109;28;20592;-50
2021/01/03 08:20:04;;;;;;;36.63;27.97;;;;;;;;;;5109047;28;20683;-50
2021/01/03 08:22:30;;;;;;;38.97;30.10;;;;;;;;;;5109045;28;20590;-50
2021/01/03 08:24:56;;;;;;;34.07;27.03;;;;;;;;;;5107401;28;20747;-50
2021/01/03 08:27:25;;;;;;;33.13;27.60;;;;;;;;;;5109254;28;20167;-49
2021/01/03 08:29:59;;;;;;;34.30;27.80;;;;;;;;;;5107346;28;20626;-50
2021/01/03 08:32:27;;;;;;;34.13;28.20;;;;;;;;;;5113920;28;20596;-50
2021/01/03 08:35:00;;;;;;;33.23;28.40;;;;;;;;;;5111401;28;20990;-49
2021/01/03 08:37:28;;;;;;;37.80;29.60;;;;;;;;;;5113157;28;20599;-49
2021/01/03 08:40:00;;;;;;;38.60;29.90;;;;;;;;;;5111844;28;20599;-50
2021/01/03 08:42:33;;;;;;;36.00;27.43;;;;;;;;;;5110307;28;21163;-49
2021/01/03 08:44:59;;;;;;;38.93;29.80;;;;;;;;;;5111419;28;20721;-50
2021/01/03 08:47:35;;;;;;;36.07;29.90;;;;;;;;;;5113177;28;20593;-49
2021/01/03 08:50:10;;;;;;;37.20;27.23;;;;;;;;;;5111354;28;20190;-50
2021/01/03 08:52:35;;;;;;;40.77;30.90;;;;;;;;;;5111277;28;20630;-50
2021/01/03 08:55:12;;;;;;;41.00;30.40;;;;;;;;;;5110817;28;20629;-50
2021/01/03 08:57:38;;;;;;;42.67;32.33;;;;;;;;;;5113776;28;20719;-49
2021/01/03 09:00:04;;;;;;;45.00;32.37;;;;;;;;;;5109826;28;20604;-51
2021/01/03 09:02:30;;;;;;;33.93;28.30;;;;;;;;;;5109750;28;20191;-50
2021/01/03 09:04:58;;;;;;;35.22;28.67;;;;;;;;;;5111734;28;20651;-50
2021/01/03 09:07:24;;;;;;;35.50;27.97;;;;;;;;;;5111007;27;20272;-51
2021/01/03 09:09:49;;;;;;;38.53;29.70;;;;;;;;;;5111971;28;20590;-50
2021/01/03 09:12:31;;;;;;;37.27;29.83;;;;;;;;;;5111992;27;20704;-50
2021/01/03 09:14:57;;;;;;;39.00;28.40;;;;;;;;;;5110171;27;20593;-50
2021/01/03 09:17:24;;;;;;;42.80;29.10;;;;;;;;;;5112320;27;20648;-51
2021/01/03 09:20:04;;;;;;;34.00;27.03;;;;;;;;;;5108765;27;20230;-53
2021/01/03 09:22:38;;;;;;;33.07;26.37;;;;;;;;;;5110775;27;20719;-51
2021/01/03 09:25:06;;;;;;;38.30;28.23;;;;;;;;;;5110463;27;20647;-50
2021/01/03 09:27:32;;;;;;;32.90;25.53;;;;;;;;;;5110760;27;21446;-49
2021/01/03 09:30:24;;;;;;;32.33;26.63;;;;;;;;;;5108023;27;20621;-50
2021/01/03 09:33:02;;;;;;;32.97;25.60;;;;;;;;;;5103010;28;20189;-48
2021/01/03 09:35:45;;;;;;;30.90;25.43;;;;;;;;;;5107863;28;20610;-48
2021/01/03 09:38:28;;;;;;;34.27;27.40;;;;;;;;;;5099739;28;20622;-49
2021/01/03 09:41:12;;;;;;;33.07;25.77;;;;;;;;;;5108872;28;20612;-48
2021/01/03 09:43:53;;;;;;;29.67;24.63;;;;;;;;;;5109351;28;21124;-48
2021/01/03 09:46:30;;;;;;;30.47;26.73;;;;;;;;;;5105338;28;20606;-48
2021/01/03 09:49:09;;;;;;;32.73;25.07;;;;;;;;;;5109026;28;20654;-48
2021/01/03 09:51:39;;;;;;;32.17;25.00;;;;;;;;;;5105041;28;20594;-49
2021/01/03 09:54:07;;;;;;;30.80;25.33;;;;;;;;;;5110508;27;21006;-49
2021/01/03 09:56:35;;;;;;;29.27;24.47;;;;;;;;;;5113085;27;20709;-49
2021/01/03 09:59:07;;;;;;;37.33;29.13;;;;;;;;;;5107968;28;20602;-48
2021/01/03 10:01:34;;;;;;;32.17;25.00;;;;;;;;;;5106067;27;20603;-49
2021/01/03 10:04:13;;;;;;;33.67;26.93;;;;;;;;;;5109420;27;20657;-49
2021/01/03 10:06:39;;;;;;;26.87;23.33;;;;;;;;;;5100890;28;20617;-48
2021/01/03 10:09:10;;;;;;;30.50;23.37;;;;;;;;;;5107242;28;21008;-49
2021/01/03 10:11:36;;;;;;;33.07;26.37;;;;;;;;;;5107112;28;20806;-49
2021/01/03 10:14:04;;;;;;;31.17;25.40;;;;;;;;;;5108774;28;20632;-49
2021/01/03 10:16:30;;;;;;;32.50;25.03;;;;;;;;;;5104384;28;20262;-49
2021/01/03 10:18:56;;;;;;;35.80;27.23;;;;;;;;;;5106472;28;20764;-49
2021/01/03 10:21:29;;;;;;;28.23;24.80;;;;;;;;;;5104356;28;20795;-50
2021/01/03 10:23:56;;;;;;;32.53;25.40;;;;;;;;;;5102351;28;20203;-50
2021/01/03 10:26:24;;;;;;;30.10;25.40;;;;;;;;;;5104977;28;20594;-49
2021/01/03 10:28:49;;;;;;;32.33;26.03;;;;;;;;;;5108739;28;21181;-49
2021/01/03 10:31:15;;;;;;;29.73;26.57;;;;;;;;;;5099222;28;20649;-49
2021/01/03 10:33:40;;;;;;;30.40;26.20;;;;;;;;;;5110435;27;20624;-48
2021/01/03 10:36:06;;;;;;;32.63;28.17;;;;;;;;;;5108364;27;20216;-49
2021/01/03 10:38:31;;;;;;;32.70;27.50;;;;;;;;;;5113647;27;20179;-50
2021/01/03 10:40:56;;;;;;;34.53;27.52;;;;;;;;;;5102683;27;20183;-49
2021/01/03 10:43:21;;;;;;;31.57;27.07;;;;;;;;;;5113192;27;20195;-49
2021/01/03 10:45:46;;;;;;;30.60;26.67;;;;;;;;;;5114536;27;20199;-49
2021/01/03 10:48:12;;;;;;;37.28;26.98;;;;;;;;;;5110646;27;20177;-50
2021/01/03 10:50:38;;;;;;;31.60;27.23;;;;;;;;;;5102702;27;20180;-49
2021/01/03 10:53:03;;;;;;;32.50;28.40;;;;;;;;;;5099211;28;20605;-49
2021/01/03 10:55:28;;;;;;;31.63;26.23;;;;;;;;;;5110474;27;20550;-50
2021/01/03 10:57:54;;;;;;;31.10;26.48;;;;;;;;;;5106177;27;20180;-48
2021/01/03 11:00:20;;;;;;;36.73;28.50;;;;;;;;;;5107731;27;20175;-49
2021/01/03 11:02:45;;;;;;;35.73;29.40;;;;;;;;;;5110555;27;21485;-48
2021/01/03 11:05:10;;;;;;;32.67;28.27;;;;;;;;;;5107995;27;20174;-49
2021/01/03 11:07:36;;;;;;;34.27;27.67;;;;;;;;;;5103615;27;20652;-49
2021/01/03 11:10:02;;;;;;;29.77;26.60;;;;;;;;;;5107364;28;20182;-50
2021/01/03 11:12:27;;;;;;;33.37;27.90;;;;;;;;;;5107980;27;20238;-50
2021/01/03 11:14:53;;;;;;;34.22;30.50;;;;;;;;;;5104040;28;21173;-49
2021/01/03 11:17:18;;;;;;;36.33;30.20;;;;;;;;;;5108299;27;20252;-49
2021/01/03 11:19:43;;;;;;;33.33;28.97;;;;;;;;;;5108905;27;20216;-48
2021/01/03 11:22:10;;;;;;;30.97;27.50;;;;;;;;;;5115004;27;20184;-48
2021/01/03 11:24:36;;;;;;;37.53;30.93;;;;;;;;;;5109100;27;20212;-48
2021/01/03 11:27:03;;;;;;;38.60;30.20;;;;;;;;;;5089483;28;20596;-48
2021/01/03 11:29:29;;;;;;;32.10;28.60;;;;;;;;;;5109736;27;21241;-49
2021/01/03 11:31:57;;;;;;;34.77;30.07;;;;;;;;;;5105680;27;20637;-49
2021/01/03 11:34:27;;;;;;;33.23;29.67;;;;;;;;;;5109495;27;20173;-49
2021/01/03 11:36:54;;;;;;;36.37;30.20;;;;;;;;;;5109854;27;21532;-48
2021/01/03 11:39:20;;;;;;;37.43;30.97;;;;;;;;;;5106479;27;20608;-48
2021/01/03 11:41:47;;;;;;;38.60;30.30;;;;;;;;;;5109962;27;21175;-48
2021/01/03 11:44:12;;;;;;;33.10;28.10;;;;;;;;;;5110799;27;20239;-48
2021/01/03 11:46:37;;;;;;;36.60;30.03;;;;;;;;;;5107093;28;21513;-48
2021/01/03 11:49:02;;;;;;;35.33;30.50;;;;;;;;;;5109969;27;20172;-48
2021/01/03 11:51:27;;;;;;;38.25;31.77;;;;;;;;;;5105300;28;20246;-48
2021/01/03 11:53:53;;;;;;;38.67;32.83;;;;;;;;;;5109379;28;20690;-48
2021/01/03 11:56:18;;;;;;;40.67;32.23;;;;;;;;;;5107469;28;20212;-49
2021/01/03 11:58:43;;;;;;;42.40;32.80;;;;;;;;;;5108418;28;20178;-49
2021/01/03 12:01:09;;;;;;;36.17;29.80;;;;;;;;;;5109716;28;20180;-48
2021/01/03 12:03:34;;;;;;;38.95;32.30;;;;;;;;;;5106848;28;20197;-48
2021/01/03 12:05:59;;;;;;;36.30;31.52;;;;;;;;;;5103718;28;20645;-48
2021/01/03 12:08:24;;;;;;;37.65;31.75;;;;;;;;;;5107866;28;20188;-48
2021/01/03 12:10:49;;;;;;;38.55;31.17;;;;;;;;;;5109865;28;20177;-49
2021/01/03 12:13:14;;;;;;;37.90;32.53;;;;;;;;;;5110110;28;20533;-49
2021/01/03 12:15:40;;;;;;;40.00;34.47;;;;;;;;;;5104913;28;20199;-49
2021/01/03 12:18:05;;;;;;;53.93;42.83;;;;;;;;;;5106123;28;20551;-49
2021/01/03 12:20:30;;;;;;;49.20;41.20;;;;;;;;;;5108693;28;20227;-49
2021/01/03 12:22:55;;;;;;;57.67;43.97;;;;;;;;;;5103317;28;20185;-49
2021/01/03 12:25:21;;;;;;;44.80;36.10;;;;;;;;;;5107208;28;20627;-49
2021/01/03 12:27:46;;;;;;;46.03;36.37;;;;;;;;;;5111151;28;20163;-49
2021/01/03 12:30:12;;;;;;;39.97;32.10;;;;;;;;;;5106471;28;21032;-49
2021/01/03 12:32:38;;;;;;;42.70;33.63;;;;;;;;;;5110463;28;20199;-49
2021/01/03 12:35:03;;;;;;;41.73;34.43;;;;;;;;;;5109338;28;20595;-49
2021/01/03 12:37:28;;;;;;;48.23;36.73;;;;;;;;;;5106385;28;20690;-49
2021/01/03 12:39:53;;;;;;;44.80;35.50;;;;;;;;;;5113345;28;20178;-50
2021/01/03 12:42:21;;;;;;;44.40;35.90;;;;;;;;;;5116830;28;20687;-49
2021/01/03 12:44:46;;;;;;;41.80;35.43;;;;;;;;;;5113001;28;20192;-49
2021/01/03 12:47:12;;;;;;;45.20;35.20;;;;;;;;;;5108817;28;20609;-49
2021/01/03 12:49:37;;;;;;;46.20;36.30;;;;;;;;;;5116896;28;20176;-49
2021/01/03 12:52:02;;;;;;;41.60;34.60;;;;;;;;;;5109864;28;20251;-49
2021/01/03 12:54:28;;;;;;;44.40;35.70;;;;;;;;;;5108827;28;20616;-48
2021/01/03 12:56:53;;;;;;;44.40;36.03;;;;;;;;;;5104959;28;20233;-49
2021/01/03 12:59:19;;;;;;;48.93;37.67;;;;;;;;;;5110470;28;20176;-49
2021/01/03 13:01:44;;;;;;;46.63;37.57;;;;;;;;;;5106148;28;20181;-49
2021/01/03 13:04:11;;;;;;;41.90;36.30;;;;;;;;;;5109007;28;20205;-49
2021/01/03 13:06:37;;;;;;;48.17;37.50;;;;;;;;;;5101768;28;20595;-49
2021/01/03 13:09:04;;;;;;;44.33;36.20;;;;;;;;;;5105006;28;20605;-49
2021/01/03 13:11:30;;;;;;;46.57;36.67;;;;;;;;;;5106241;28;20599;-48
2021/01/03 13:13:55;;;;;;;43.38;36.00;;;;;;;;;;5106172;28;20613;-49
2021/01/03 13:16:20;;;;;;;43.50;34.67;;;;;;;;;;5106426;28;20183;-49
2021/01/03 13:18:47;;;;;;;48.10;36.33;;;;;;;;;;5114793;27;20224;-49
2021/01/03 13:21:12;;;;;;;44.90;36.57;;;;;;;;;;5117431;27;20549;-49
2021/01/03 13:23:37;;;;;;;48.70;38.27;;;;;;;;;;5120769;27;20647;-49
2021/01/03 13:26:03;;;;;;;44.20;35.80;;;;;;;;;;5114220;27;20268;-49
2021/01/03 13:28:29;;;;;;;44.30;37.27;;;;;;;;;;5114435;27;20228;-49
2021/01/03 13:30:54;;;;;;;42.63;35.17;;;;;;;;;;5114430;27;20972;-48
2021/01/03 13:33:19;;;;;;;43.35;36.03;;;;;;;;;;5114661;27;20187;-49
2021/01/03 13:35:44;;;;;;;50.03;36.47;;;;;;;;;;5110730;27;20189;-49
2021/01/03 13:38:10;;;;;;;43.17;35.10;;;;;;;;;;5100075;28;20192;-48
2021/01/03 13:40:35;;;;;;;43.10;34.50;;;;;;;;;;5109647;28;20181;-49
2021/01/03 13:43:00;;;;;;;43.73;36.43;;;;;;;;;;5114009;27;20200;-49
2021/01/03 13:45:25;;;;;;;44.93;36.63;;;;;;;;;;5116800;27;20175;-49
2021/01/03 13:47:51;;;;;;;46.50;38.13;;;;;;;;;;5107093;27;20232;-49
2021/01/03 13:50:16;;;;;;;49.27;38.13;;;;;;;;;;5113449;27;20257;-48
2021/01/03 13:52:42;;;;;;;49.53;41.20;;;;;;;;;;5110881;27;20185;-48
2021/01/03 13:55:07;;;;;;;52.33;40.87;;;;;;;;;;5102675;27;20267;-49
2021/01/03 13:57:32;;;;;;;47.33;36.07;;;;;;;;;;5111466;27;20273;-49
2021/01/03 13:59:57;;;;;;;52.50;40.63;;;;;;;;;;5108572;27;20180;-49
2021/01/03 14:02:23;;;;;;;51.72;40.45;;;;;;;;;;5109057;28;20232;-49
2021/01/03 14:04:48;;;;;;;44.10;36.90;;;;;;;;;;5108295;27;20208;-49
2021/01/03 14:07:13;;;;;;;48.53;38.50;;;;;;;;;;5107680;27;20185;-49
2021/01/03 14:09:38;;;;;;;48.50;38.60;;;;;;;;;;5114952;27;20195;-48
2021/01/03 14:12:04;;;;;;;49.50;38.37;;;;;;;;;;5119031;27;20182;-48
2021/01/03 14:14:29;;;;;;;50.23;39.60;;;;;;;;;;5111776;27;20198;-48
2021/01/03 14:16:56;;;;;;;45.97;37.57;;;;;;;;;;5116282;27;20279;-47
2021/01/03 14:19:25;;;;;;;50.50;38.37;;;;;;;;;;5114041;27;20610;-48
2021/01/03 14:21:50;;;;;;;49.73;38.23;;;;;;;;;;5110639;27;21000;-47